Dunning, NE (68833)

8:26 PM CDT on July 25, 2014 (GMT -0500)
Thedford (KTIF) Elev 2927 ft | 41.96 °N, 100.57 °W | Change Station

Current weather conditions updated 11 minutes ago

Clear
Clear
85 °F
Feels Like 88 °F
N
4
Wind Variable Wind from SSE

Tomorrow is forecast to be nearly the same temperature as today.

Today
High -- | Low -- °F
--% Chance of Precip.
Yesterday
High -- | Low -- °F
Precip. -- in
6:27 AM 9:05 PM
Waning Crescent, 1% visible
Pressure 29.89 in
Visibility 10.0 miles
Clouds Clear
Heat Index 88 °F
Dew Point 67 °F
Humidity 55%
Rainfall 0.00 in
Snow Depth Not available.
UV 0 out of 12
Pollen 7.50 out of 12
Air Quality Not available.
Flu Activity Not available.
METAR KTIF 260115Z 16003KT 10SM CLR 30/20 A2989 RMK AO2 T02960196 PWINO

More Conditions Fewer Conditions

Pressure 29.89 in
Visibility 10.0 miles
Clouds Clear
Heat Index 88 °F
Dew Point 67 °F
Humidity 55%
Rainfall 0.00 in
Snow Depth Not available.
UV 0 out of 12
Pollen 7.50 out of 12
Air Quality Not available.
Flu Activity Not available.
METAR KTIF 260115Z 16003KT 10SM CLR 30/20 A2989 RMK AO2 T02960196 PWINO

More Conditions Fewer Conditions

10-Day Weather Forecast

Almanac

Astronomy

Jul. 25, 2014 Rise Set
Actual Time 6:27 AM CDT 9:05 PM CDT
Civil Twilight 5:55 AM CDT 9:37 PM CDT
Nautical Twilight 5:15 AM CDT 10:17 PM CDT
Astronomical Twilight 4:29 AM CDT 11:02 PM CDT
Moon 5:28 AM CDT (7/25) 8:02 PM CDT (7/25)
Length of Visible Light 15h 42m
Length of Day
14h 37m
Tomorrow will be 1m 54s shorter.
Waning Crescent, 1% of the Moon is Illuminated
Today
Waning Crescent
Jul 26
New
Aug 3
First Quarter
Aug 10
Full
Aug 17
Last Quarter

Today's Extremes

State Highs State Lows

Community

WunderPhotos

Upload Photos

1,737,459 photos uploaded!

Nearby

Snow Depth

Station Depth Elevation
No new snow has been reported.

Earthquake Activity

City Distance Mag. Time & Date
No recent earthquake activity has been reported nearby.
Minimum magnitude displayed is 2.5.

Coastal Water Temperatures

Place Temperature
No Stations Reporting

Nearby Weather Stations

Station Location Temp. Heat Index Dew Point Humidity Wind Precip. Elev Updated Type
RAWS BESSEY NE, Halsey, NE 87 °F 88 °F 64 °F 47% ESE  at  4 mph 0.00 in / hr 2873 ft 7:23 PM CDT MADIS

Show More Stations Show Fewer Stations